NCAR-RAP Real-Time Weather Data

Output produced by METARs form (23 February 2020  00:40 UTC)
found at http://weather.rap.ucar.edu/surface/
 
KGRI 222353Z 33008KT 10SM CLR 12/M04 A2994 RMK AO2 SLP154 T01221039 10183 20106 53006
KGRI 222253Z 33012KT 10SM CLR 16/M04 A2993 RMK AO2 WSHFT 2212 SLP146 T01611039